sensor_id;sensor_type;location;lat;lon;timestamp;P1;durP1;ratioP1;P2;durP2;ratioP2
75171;SDS011;63750;52.418;20.742;2022-11-15T00:00:59;29.70;;;23.40;;
75171;SDS011;63750;52.418;20.742;2022-11-15T00:03:28;28.70;;;23.20;;
75171;SDS011;63750;52.418;20.742;2022-11-15T00:06:00;30.50;;;23.70;;
75171;SDS011;63750;52.418;20.742;2022-11-15T00:08:31;30.00;;;22.80;;
75171;SDS011;63750;52.418;20.742;2022-11-15T00:11:00;29.00;;;22.90;;
75171;SDS011;63750;52.418;20.742;2022-11-15T00:13:29;28.30;;;22.70;;
75171;SDS011;63750;52.418;20.742;2022-11-15T00:15:58;29.60;;;23.10;;
75171;SDS011;63750;52.418;20.742;2022-11-15T00:18:28;27.50;;;22.20;;
75171;SDS011;63750;52.418;20.742;2022-11-15T00:21:02;31.10;;;23.80;;
75171;SDS011;63750;52.418;20.742;2022-11-15T00:23:32;29.70;;;24.20;;
75171;SDS011;63750;52.418;20.742;2022-11-15T00:26:01;28.30;;;23.40;;
75171;SDS011;63750;52.418;20.742;2022-11-15T00:28:29;29.80;;;23.80;;
75171;SDS011;63750;52.418;20.742;2022-11-15T00:31:01;29.80;;;23.40;;
75171;SDS011;63750;52.418;20.742;2022-11-15T00:33:30;29.60;;;23.90;;
75171;SDS011;63750;52.418;20.742;2022-11-15T00:36:03;30.40;;;23.80;;
75171;SDS011;63750;52.418;20.742;2022-11-15T00:38:33;31.40;;;24.20;;
75171;SDS011;63750;52.418;20.742;2022-11-15T00:41:04;28.50;;;23.60;;
75171;SDS011;63750;52.418;20.742;2022-11-15T00:43:34;29.00;;;23.50;;
75171;SDS011;63750;52.418;20.742;2022-11-15T00:46:02;31.90;;;24.30;;
75171;SDS011;63750;52.418;20.742;2022-11-15T00:48:31;31.30;;;24.90;;
75171;SDS011;63750;52.418;20.742;2022-11-15T00:50:59;28.50;;;23.80;;
75171;SDS011;63750;52.418;20.742;2022-11-15T00:53:28;31.40;;;23.70;;
75171;SDS011;63750;52.418;20.742;2022-11-15T00:55:56;32.30;;;24.50;;
75171;SDS011;63750;52.418;20.742;2022-11-15T00:58:25;30.90;;;24.70;;
75171;SDS011;63750;52.418;20.742;2022-11-15T01:00:53;31.30;;;25.10;;
75171;SDS011;63750;52.418;20.742;2022-11-15T01:03:21;32.80;;;25.00;;
75171;SDS011;63750;52.418;20.742;2022-11-15T01:05:50;32.80;;;25.30;;
75171;SDS011;63750;52.418;20.742;2022-11-15T01:08:18;34.90;;;25.30;;
75171;SDS011;63750;52.418;20.742;2022-11-15T01:10:47;32.60;;;25.90;;
75171;SDS011;63750;52.418;20.742;2022-11-15T01:13:15;34.80;;;26.10;;
75171;SDS011;63750;52.418;20.742;2022-11-15T01:15:43;33.60;;;26.00;;
75171;SDS011;63750;52.418;20.742;2022-11-15T01:18:12;36.70;;;26.60;;
75171;SDS011;63750;52.418;20.742;2022-11-15T01:20:41;39.20;;;28.00;;
75171;SDS011;63750;52.418;20.742;2022-11-15T01:23:09;38.80;;;28.50;;
75171;SDS011;63750;52.418;20.742;2022-11-15T01:25:38;41.10;;;29.30;;
75171;SDS011;63750;52.418;20.742;2022-11-15T01:28:06;40.40;;;27.90;;
75171;SDS011;63750;52.418;20.742;2022-11-15T01:30:35;42.70;;;30.10;;
75171;SDS011;63750;52.418;20.742;2022-11-15T01:33:03;44.30;;;31.00;;
75171;SDS011;63750;52.418;20.742;2022-11-15T01:35:32;45.50;;;31.00;;
75171;SDS011;63750;52.418;20.742;2022-11-15T01:38:04;44.00;;;32.00;;
75171;SDS011;63750;52.418;20.742;2022-11-15T01:40:33;44.20;;;31.40;;
75171;SDS011;63750;52.418;20.742;2022-11-15T01:45:51;45.40;;;31.70;;
75171;SDS011;63750;52.418;20.742;2022-11-15T01:48:31;48.10;;;33.70;;
75171;SDS011;63750;52.418;20.742;2022-11-15T01:51:02;49.60;;;34.10;;
75171;SDS011;63750;52.418;20.742;2022-11-15T01:53:35;49.70;;;34.40;;
75171;SDS011;63750;52.418;20.742;2022-11-15T01:56:08;52.60;;;36.20;;
75171;SDS011;63750;52.418;20.742;2022-11-15T01:58:40;52.70;;;36.50;;
75171;SDS011;63750;52.418;20.742;2022-11-15T02:01:11;51.70;;;35.20;;
75171;SDS011;63750;52.418;20.742;2022-11-15T02:03:42;58.20;;;36.10;;
75171;SDS011;63750;52.418;20.742;2022-11-15T02:06:15;50.40;;;35.80;;
75171;SDS011;63750;52.418;20.742;2022-11-15T02:08:44;51.30;;;34.30;;
75171;SDS011;63750;52.418;20.742;2022-11-15T02:11:13;55.80;;;35.80;;
75171;SDS011;63750;52.418;20.742;2022-11-15T02:13:42;55.20;;;37.30;;
75171;SDS011;63750;52.418;20.742;2022-11-15T02:16:13;55.70;;;37.70;;
75171;SDS011;63750;52.418;20.742;2022-11-15T02:18:52;56.70;;;36.00;;
75171;SDS011;63750;52.418;20.742;2022-11-15T02:21:26;54.00;;;36.10;;
75171;SDS011;63750;52.418;20.742;2022-11-15T02:27:23;56.60;;;36.50;;
75171;SDS011;63750;52.418;20.742;2022-11-15T02:30:23;54.50;;;37.90;;
75171;SDS011;63750;52.418;20.742;2022-11-15T02:32:58;55.20;;;35.80;;
75171;SDS011;63750;52.418;20.742;2022-11-15T02:35:32;57.90;;;36.60;;
75171;SDS011;63750;52.418;20.742;2022-11-15T02:38:12;52.40;;;36.70;;
75171;SDS011;63750;52.418;20.742;2022-11-15T02:40:53;57.00;;;37.70;;
75171;SDS011;63750;52.418;20.742;2022-11-15T02:43:28;58.00;;;37.80;;
75171;SDS011;63750;52.418;20.742;2022-11-15T02:46:03;55.80;;;36.60;;
75171;SDS011;63750;52.418;20.742;2022-11-15T02:48:37;52.60;;;36.80;;
75171;SDS011;63750;52.418;20.742;2022-11-15T02:51:07;54.50;;;38.50;;
75171;SDS011;63750;52.418;20.742;2022-11-15T02:53:36;58.20;;;38.90;;
75171;SDS011;63750;52.418;20.742;2022-11-15T02:56:07;61.60;;;38.30;;
75171;SDS011;63750;52.418;20.742;2022-11-15T02:58:45;56.50;;;37.70;;
75171;SDS011;63750;52.418;20.742;2022-11-15T03:01:26;59.50;;;39.30;;
75171;SDS011;63750;52.418;20.742;2022-11-15T03:04:06;58.70;;;38.10;;
75171;SDS011;63750;52.418;20.742;2022-11-15T03:06:44;59.50;;;39.00;;
75171;SDS011;63750;52.418;20.742;2022-11-15T03:09:18;59.40;;;39.00;;
75171;SDS011;63750;52.418;20.742;2022-11-15T03:11:58;58.70;;;38.50;;
75171;SDS011;63750;52.418;20.742;2022-11-15T03:14:34;58.90;;;37.80;;
75171;SDS011;63750;52.418;20.742;2022-11-15T03:17:08;61.90;;;39.70;;
75171;SDS011;63750;52.418;20.742;2022-11-15T03:19:43;61.70;;;41.80;;
75171;SDS011;63750;52.418;20.742;2022-11-15T03:22:14;62.10;;;39.30;;
75171;SDS011;63750;52.418;20.742;2022-11-15T03:24:46;60.10;;;40.00;;
75171;SDS011;63750;52.418;20.742;2022-11-15T03:27:19;56.90;;;40.10;;
75171;SDS011;63750;52.418;20.742;2022-11-15T03:29:52;65.30;;;41.70;;
75171;SDS011;63750;52.418;20.742;2022-11-15T03:32:25;62.40;;;40.30;;
75171;SDS011;63750;52.418;20.742;2022-11-15T03:34:56;62.30;;;40.40;;
75171;SDS011;63750;52.418;20.742;2022-11-15T03:37:29;62.10;;;40.60;;
75171;SDS011;63750;52.418;20.742;2022-11-15T03:40:03;61.60;;;41.60;;
75171;SDS011;63750;52.418;20.742;2022-11-15T03:42:34;63.40;;;40.50;;
75171;SDS011;63750;52.418;20.742;2022-11-15T03:45:10;67.00;;;42.30;;
75171;SDS011;63750;52.418;20.742;2022-11-15T03:47:44;64.50;;;40.60;;
75171;SDS011;63750;52.418;20.742;2022-11-15T03:50:17;61.70;;;41.10;;
75171;SDS011;63750;52.418;20.742;2022-11-15T03:52:47;64.60;;;40.90;;
75171;SDS011;63750;52.418;20.742;2022-11-15T03:55:18;61.70;;;40.80;;
75171;SDS011;63750;52.418;20.742;2022-11-15T03:57:48;62.10;;;40.60;;
75171;SDS011;63750;52.418;20.742;2022-11-15T04:00:20;61.30;;;39.80;;
75171;SDS011;63750;52.418;20.742;2022-11-15T04:02:48;58.70;;;38.30;;
75171;SDS011;63750;52.418;20.742;2022-11-15T04:05:16;57.80;;;37.60;;
75171;SDS011;63750;52.418;20.742;2022-11-15T04:07:45;58.50;;;39.30;;
75171;SDS011;63750;52.418;20.742;2022-11-15T04:10:14;54.40;;;37.00;;
75171;SDS011;63750;52.418;20.742;2022-11-15T04:12:45;59.70;;;37.20;;
75171;SDS011;63750;52.418;20.742;2022-11-15T04:15:14;58.10;;;37.50;;
75171;SDS011;63750;52.418;20.742;2022-11-15T04:17:45;54.70;;;37.70;;
75171;SDS011;63750;52.418;20.742;2022-11-15T04:20:15;57.30;;;36.10;;
75171;SDS011;63750;52.418;20.742;2022-11-15T04:22:45;53.70;;;35.20;;
75171;SDS011;63750;52.418;20.742;2022-11-15T04:25:13;57.50;;;36.50;;
75171;SDS011;63750;52.418;20.742;2022-11-15T04:27:42;55.60;;;36.50;;
75171;SDS011;63750;52.418;20.742;2022-11-15T04:30:10;57.10;;;36.60;;
75171;SDS011;63750;52.418;20.742;2022-11-15T04:32:39;55.60;;;37.60;;
75171;SDS011;63750;52.418;20.742;2022-11-15T04:35:08;60.00;;;39.70;;
75171;SDS011;63750;52.418;20.742;2022-11-15T04:37:36;59.90;;;38.80;;
75171;SDS011;63750;52.418;20.742;2022-11-15T04:40:06;59.10;;;38.00;;
75171;SDS011;63750;52.418;20.742;2022-11-15T04:42:36;58.20;;;37.60;;
75171;SDS011;63750;52.418;20.742;2022-11-15T04:45:07;54.70;;;36.10;;
75171;SDS011;63750;52.418;20.742;2022-11-15T04:47:36;58.20;;;37.40;;
75171;SDS011;63750;52.418;20.742;2022-11-15T04:50:05;54.50;;;35.90;;
75171;SDS011;63750;52.418;20.742;2022-11-15T04:52:34;54.60;;;36.00;;
75171;SDS011;63750;52.418;20.742;2022-11-15T04:55:03;59.80;;;35.70;;
75171;SDS011;63750;52.418;20.742;2022-11-15T04:57:32;58.60;;;37.50;;
75171;SDS011;63750;52.418;20.742;2022-11-15T05:00:01;57.60;;;36.20;;
75171;SDS011;63750;52.418;20.742;2022-11-15T05:02:31;54.80;;;35.10;;
75171;SDS011;63750;52.418;20.742;2022-11-15T05:05:00;56.80;;;37.70;;
75171;SDS011;63750;52.418;20.742;2022-11-15T05:07:28;63.90;;;39.50;;
75171;SDS011;63750;52.418;20.742;2022-11-15T05:09:56;62.80;;;38.60;;
75171;SDS011;63750;52.418;20.742;2022-11-15T05:12:25;53.60;;;35.90;;
75171;SDS011;63750;52.418;20.742;2022-11-15T05:14:53;59.50;;;36.80;;
75171;SDS011;63750;52.418;20.742;2022-11-15T05:17:21;62.20;;;37.10;;
75171;SDS011;63750;52.418;20.742;2022-11-15T05:19:50;58.90;;;37.20;;
75171;SDS011;63750;52.418;20.742;2022-11-15T05:22:18;60.50;;;36.60;;
75171;SDS011;63750;52.418;20.742;2022-11-15T05:24:47;59.30;;;36.80;;
75171;SDS011;63750;52.418;20.742;2022-11-15T05:27:15;61.90;;;37.50;;
75171;SDS011;63750;52.418;20.742;2022-11-15T05:29:44;58.20;;;38.00;;
75171;SDS011;63750;52.418;20.742;2022-11-15T05:32:12;62.10;;;38.20;;
75171;SDS011;63750;52.418;20.742;2022-11-15T05:34:42;62.60;;;37.60;;
75171;SDS011;63750;52.418;20.742;2022-11-15T05:37:10;58.70;;;37.30;;
75171;SDS011;63750;52.418;20.742;2022-11-15T05:39:39;60.40;;;37.20;;
75171;SDS011;63750;52.418;20.742;2022-11-15T05:42:07;55.60;;;35.50;;
75171;SDS011;63750;52.418;20.742;2022-11-15T05:44:39;57.90;;;35.90;;
75171;SDS011;63750;52.418;20.742;2022-11-15T05:47:12;57.60;;;36.80;;
75171;SDS011;63750;52.418;20.742;2022-11-15T05:49:43;57.20;;;34.80;;
75171;SDS011;63750;52.418;20.742;2022-11-15T05:52:14;53.10;;;33.90;;
75171;SDS011;63750;52.418;20.742;2022-11-15T05:54:46;57.00;;;35.10;;
75171;SDS011;63750;52.418;20.742;2022-11-15T05:57:16;58.90;;;38.00;;
75171;SDS011;63750;52.418;20.742;2022-11-15T05:59:44;63.20;;;36.90;;
75171;SDS011;63750;52.418;20.742;2022-11-15T06:02:13;53.40;;;34.60;;
75171;SDS011;63750;52.418;20.742;2022-11-15T06:04:41;58.90;;;36.40;;
75171;SDS011;63750;52.418;20.742;2022-11-15T06:07:10;59.10;;;34.20;;
75171;SDS011;63750;52.418;20.742;2022-11-15T06:09:38;56.80;;;34.10;;
75171;SDS011;63750;52.418;20.742;2022-11-15T06:12:07;52.90;;;33.20;;
75171;SDS011;63750;52.418;20.742;2022-11-15T06:14:35;54.00;;;34.60;;
75171;SDS011;63750;52.418;20.742;2022-11-15T06:17:04;56.00;;;33.40;;
75171;SDS011;63750;52.418;20.742;2022-11-15T06:19:32;56.10;;;33.50;;
75171;SDS011;63750;52.418;20.742;2022-11-15T06:22:00;54.00;;;33.30;;
75171;SDS011;63750;52.418;20.742;2022-11-15T06:24:29;58.20;;;34.80;;
75171;SDS011;63750;52.418;20.742;2022-11-15T06:26:57;61.50;;;34.70;;
75171;SDS011;63750;52.418;20.742;2022-11-15T06:29:26;54.90;;;34.50;;
75171;SDS011;63750;52.418;20.742;2022-11-15T06:31:54;53.40;;;34.80;;
75171;SDS011;63750;52.418;20.742;2022-11-15T06:34:22;58.60;;;36.20;;
75171;SDS011;63750;52.418;20.742;2022-11-15T06:36:51;59.30;;;36.90;;
75171;SDS011;63750;52.418;20.742;2022-11-15T06:39:19;56.50;;;35.20;;
75171;SDS011;63750;52.418;20.742;2022-11-15T06:41:48;58.80;;;35.10;;
75171;SDS011;63750;52.418;20.742;2022-11-15T06:44:16;56.60;;;34.20;;
75171;SDS011;63750;52.418;20.742;2022-11-15T06:46:45;60.50;;;35.50;;
75171;SDS011;63750;52.418;20.742;2022-11-15T06:49:13;59.90;;;35.80;;
75171;SDS011;63750;52.418;20.742;2022-11-15T06:51:41;57.10;;;35.40;;
75171;SDS011;63750;52.418;20.742;2022-11-15T06:54:10;61.50;;;36.60;;
75171;SDS011;63750;52.418;20.742;2022-11-15T06:56:38;58.10;;;35.90;;
75171;SDS011;63750;52.418;20.742;2022-11-15T06:59:06;55.20;;;34.70;;
75171;SDS011;63750;52.418;20.742;2022-11-15T07:01:35;61.60;;;36.10;;
75171;SDS011;63750;52.418;20.742;2022-11-15T07:04:03;64.00;;;36.40;;
75171;SDS011;63750;52.418;20.742;2022-11-15T07:06:32;59.70;;;37.60;;
75171;SDS011;63750;52.418;20.742;2022-11-15T07:09:00;60.50;;;36.50;;
75171;SDS011;63750;52.418;20.742;2022-11-15T07:11:30;64.40;;;36.50;;
75171;SDS011;63750;52.418;20.742;2022-11-15T07:13:59;64.00;;;37.90;;
75171;SDS011;63750;52.418;20.742;2022-11-15T07:16:27;61.90;;;36.20;;
75171;SDS011;63750;52.418;20.742;2022-11-15T07:18:56;58.70;;;36.80;;
75171;SDS011;63750;52.418;20.742;2022-11-15T07:21:25;55.50;;;34.60;;
75171;SDS011;63750;52.418;20.742;2022-11-15T07:23:53;57.10;;;34.10;;
75171;SDS011;63750;52.418;20.742;2022-11-15T07:26:21;55.70;;;33.90;;
75171;SDS011;63750;52.418;20.742;2022-11-15T07:28:50;58.50;;;35.90;;
75171;SDS011;63750;52.418;20.742;2022-11-15T07:31:18;56.00;;;33.90;;
75171;SDS011;63750;52.418;20.742;2022-11-15T07:33:46;59.60;;;35.80;;
75171;SDS011;63750;52.418;20.742;2022-11-15T07:36:15;58.30;;;35.10;;
75171;SDS011;63750;52.418;20.742;2022-11-15T07:38:43;56.90;;;34.60;;
75171;SDS011;63750;52.418;20.742;2022-11-15T07:41:11;60.30;;;35.00;;
75171;SDS011;63750;52.418;20.742;2022-11-15T07:43:40;54.30;;;33.50;;
75171;SDS011;63750;52.418;20.742;2022-11-15T07:46:09;57.60;;;35.30;;
75171;SDS011;63750;52.418;20.742;2022-11-15T07:48:41;63.60;;;35.70;;
75171;SDS011;63750;52.418;20.742;2022-11-15T07:51:15;60.20;;;35.90;;
75171;SDS011;63750;52.418;20.742;2022-11-15T07:53:44;54.10;;;34.70;;
75171;SDS011;63750;52.418;20.742;2022-11-15T07:56:12;58.30;;;34.80;;
75171;SDS011;63750;52.418;20.742;2022-11-15T07:58:41;57.50;;;33.20;;
75171;SDS011;63750;52.418;20.742;2022-11-15T08:01:11;50.90;;;31.30;;
75171;SDS011;63750;52.418;20.742;2022-11-15T08:03:40;57.60;;;34.10;;
75171;SDS011;63750;52.418;20.742;2022-11-15T08:06:08;53.10;;;33.10;;
75171;SDS011;63750;52.418;20.742;2022-11-15T08:08:37;53.10;;;33.00;;
75171;SDS011;63750;52.418;20.742;2022-11-15T08:11:06;55.10;;;34.40;;
75171;SDS011;63750;52.418;20.742;2022-11-15T08:13:36;57.10;;;32.60;;
75171;SDS011;63750;52.418;20.742;2022-11-15T08:16:05;56.60;;;34.80;;
75171;SDS011;63750;52.418;20.742;2022-11-15T08:18:35;51.90;;;32.80;;
75171;SDS011;63750;52.418;20.742;2022-11-15T08:21:04;54.30;;;33.30;;
75171;SDS011;63750;52.418;20.742;2022-11-15T08:23:32;53.20;;;33.20;;
75171;SDS011;63750;52.418;20.742;2022-11-15T08:26:02;60.80;;;34.50;;
75171;SDS011;63750;52.418;20.742;2022-11-15T08:28:31;55.80;;;33.50;;
75171;SDS011;63750;52.418;20.742;2022-11-15T08:31:00;52.20;;;31.70;;
75171;SDS011;63750;52.418;20.742;2022-11-15T08:33:29;56.50;;;32.60;;
75171;SDS011;63750;52.418;20.742;2022-11-15T08:35:57;56.70;;;33.40;;
75171;SDS011;63750;52.418;20.742;2022-11-15T08:38:27;52.70;;;33.40;;
75171;SDS011;63750;52.418;20.742;2022-11-15T08:41:00;52.10;;;32.90;;
75171;SDS011;63750;52.418;20.742;2022-11-15T08:43:30;61.60;;;34.50;;
75171;SDS011;63750;52.418;20.742;2022-11-15T08:45:59;57.90;;;34.70;;
75171;SDS011;63750;52.418;20.742;2022-11-15T08:48:27;56.10;;;33.00;;
75171;SDS011;63750;52.418;20.742;2022-11-15T08:50:56;58.50;;;36.20;;
75171;SDS011;63750;52.418;20.742;2022-11-15T08:53:25;58.90;;;33.60;;
75171;SDS011;63750;52.418;20.742;2022-11-15T08:55:53;59.00;;;33.00;;
75171;SDS011;63750;52.418;20.742;2022-11-15T08:58:21;62.40;;;35.60;;
75171;SDS011;63750;52.418;20.742;2022-11-15T09:00:50;66.70;;;35.80;;
75171;SDS011;63750;52.418;20.742;2022-11-15T09:03:18;64.70;;;36.00;;
75171;SDS011;63750;52.418;20.742;2022-11-15T09:05:47;62.00;;;35.10;;
75171;SDS011;63750;52.418;20.742;2022-11-15T09:08:15;59.70;;;36.00;;
75171;SDS011;63750;52.418;20.742;2022-11-15T09:10:44;60.70;;;35.90;;
75171;SDS011;63750;52.418;20.742;2022-11-15T09:13:12;55.80;;;33.50;;
75171;SDS011;63750;52.418;20.742;2022-11-15T09:15:41;63.80;;;35.90;;
75171;SDS011;63750;52.418;20.742;2022-11-15T09:18:09;58.70;;;34.50;;
75171;SDS011;63750;52.418;20.742;2022-11-15T09:20:37;63.00;;;37.60;;
75171;SDS011;63750;52.418;20.742;2022-11-15T09:23:06;61.10;;;36.60;;
75171;SDS011;63750;52.418;20.742;2022-11-15T09:25:35;65.80;;;36.70;;
75171;SDS011;63750;52.418;20.742;2022-11-15T09:28:06;63.40;;;37.20;;
75171;SDS011;63750;52.418;20.742;2022-11-15T09:30:35;67.40;;;37.10;;
75171;SDS011;63750;52.418;20.742;2022-11-15T09:33:07;66.90;;;36.30;;
75171;SDS011;63750;52.418;20.742;2022-11-15T09:35:37;61.70;;;36.10;;
75171;SDS011;63750;52.418;20.742;2022-11-15T09:38:05;70.20;;;38.70;;
75171;SDS011;63750;52.418;20.742;2022-11-15T09:40:35;62.50;;;37.20;;
75171;SDS011;63750;52.418;20.742;2022-11-15T09:43:11;59.50;;;36.30;;
75171;SDS011;63750;52.418;20.742;2022-11-15T09:45:57;57.20;;;34.90;;
75171;SDS011;63750;52.418;20.742;2022-11-15T09:48:46;63.00;;;37.80;;
75171;SDS011;63750;52.418;20.742;2022-11-15T09:51:21;61.80;;;38.00;;
75171;SDS011;63750;52.418;20.742;2022-11-15T09:53:57;61.30;;;37.00;;
75171;SDS011;63750;52.418;20.742;2022-11-15T09:56:31;65.80;;;37.80;;
75171;SDS011;63750;52.418;20.742;2022-11-15T09:59:04;62.80;;;36.40;;
75171;SDS011;63750;52.418;20.742;2022-11-15T10:01:47;61.80;;;35.00;;
75171;SDS011;63750;52.418;20.742;2022-11-15T10:04:23;55.00;;;35.00;;
75171;SDS011;63750;52.418;20.742;2022-11-15T10:06:53;52.00;;;33.60;;
75171;SDS011;63750;52.418;20.742;2022-11-15T10:09:29;49.90;;;32.50;;
75171;SDS011;63750;52.418;20.742;2022-11-15T10:12:04;47.30;;;32.20;;
75171;SDS011;63750;52.418;20.742;2022-11-15T10:14:33;48.40;;;31.90;;
75171;SDS011;63750;52.418;20.742;2022-11-15T10:17:06;55.30;;;34.80;;
75171;SDS011;63750;52.418;20.742;2022-11-15T10:19:56;57.90;;;35.40;;
75171;SDS011;63750;52.418;20.742;2022-11-15T10:22:35;64.70;;;38.70;;
75171;SDS011;63750;52.418;20.742;2022-11-15T10:25:19;59.00;;;37.30;;
75171;SDS011;63750;52.418;20.742;2022-11-15T10:27:57;59.10;;;37.00;;
75171;SDS011;63750;52.418;20.742;2022-11-15T10:30:32;56.70;;;36.60;;
75171;SDS011;63750;52.418;20.742;2022-11-15T10:33:09;60.60;;;37.80;;
75171;SDS011;63750;52.418;20.742;2022-11-15T10:35:51;60.20;;;37.00;;
75171;SDS011;63750;52.418;20.742;2022-11-15T10:38:57;54.30;;;35.40;;
75171;SDS011;63750;52.418;20.742;2022-11-15T10:41:39;54.00;;;36.40;;
75171;SDS011;63750;52.418;20.742;2022-11-15T10:44:11;53.00;;;33.60;;
75171;SDS011;63750;52.418;20.742;2022-11-15T10:49:54;52.80;;;32.40;;
75171;SDS011;63750;52.418;20.742;2022-11-15T10:52:27;53.10;;;34.10;;
75171;SDS011;63750;52.418;20.742;2022-11-15T10:55:00;56.90;;;35.10;;
75171;SDS011;63750;52.418;20.742;2022-11-15T10:57:33;55.50;;;34.10;;
75171;SDS011;63750;52.418;20.742;2022-11-15T11:00:06;55.00;;;34.60;;
75171;SDS011;63750;52.418;20.742;2022-11-15T11:02:58;55.00;;;35.10;;
75171;SDS011;63750;52.418;20.742;2022-11-15T11:05:29;59.30;;;35.20;;
75171;SDS011;63750;52.418;20.742;2022-11-15T11:08:01;55.70;;;34.90;;
75171;SDS011;63750;52.418;20.742;2022-11-15T11:10:32;54.40;;;35.40;;
75171;SDS011;63750;52.418;20.742;2022-11-15T11:13:14;56.30;;;35.80;;
75171;SDS011;63750;52.418;20.742;2022-11-15T11:15:55;52.90;;;35.10;;
75171;SDS011;63750;52.418;20.742;2022-11-15T11:18:30;59.60;;;36.10;;
75171;SDS011;63750;52.418;20.742;2022-11-15T11:21:07;58.30;;;37.10;;
75171;SDS011;63750;52.418;20.742;2022-11-15T11:23:44;56.60;;;36.80;;
75171;SDS011;63750;52.418;20.742;2022-11-15T11:26:24;56.70;;;37.20;;
75171;SDS011;63750;52.418;20.742;2022-11-15T11:29:04;54.30;;;35.90;;
75171;SDS011;63750;52.418;20.742;2022-11-15T11:31:46;56.00;;;36.10;;
75171;SDS011;63750;52.418;20.742;2022-11-15T11:34:25;55.40;;;36.90;;
75171;SDS011;63750;52.418;20.742;2022-11-15T11:37:07;53.20;;;35.70;;
75171;SDS011;63750;52.418;20.742;2022-11-15T11:39:44;56.90;;;37.20;;
75171;SDS011;63750;52.418;20.742;2022-11-15T11:42:26;60.80;;;38.80;;
75171;SDS011;63750;52.418;20.742;2022-11-15T11:45:05;55.60;;;36.00;;
75171;SDS011;63750;52.418;20.742;2022-11-15T11:47:51;55.00;;;34.70;;
75171;SDS011;63750;52.418;20.742;2022-11-15T11:50:25;51.40;;;33.70;;
75171;SDS011;63750;52.418;20.742;2022-11-15T11:52:56;53.90;;;33.90;;
75171;SDS011;63750;52.418;20.742;2022-11-15T11:55:29;53.40;;;33.90;;
75171;SDS011;63750;52.418;20.742;2022-11-15T11:58:06;55.30;;;35.20;;
75171;SDS011;63750;52.418;20.742;2022-11-15T12:00:40;50.40;;;34.60;;
75171;SDS011;63750;52.418;20.742;2022-11-15T12:03:14;55.10;;;34.40;;
75171;SDS011;63750;52.418;20.742;2022-11-15T12:05:54;54.10;;;35.20;;
75171;SDS011;63750;52.418;20.742;2022-11-15T12:08:27;53.50;;;35.20;;
75171;SDS011;63750;52.418;20.742;2022-11-15T12:11:07;58.70;;;35.80;;
75171;SDS011;63750;52.418;20.742;2022-11-15T12:13:41;56.30;;;36.60;;
75171;SDS011;63750;52.418;20.742;2022-11-15T12:16:13;53.80;;;33.80;;
75171;SDS011;63750;52.418;20.742;2022-11-15T12:18:48;56.10;;;35.90;;
75171;SDS011;63750;52.418;20.742;2022-11-15T12:21:21;53.70;;;35.60;;
75171;SDS011;63750;52.418;20.742;2022-11-15T12:24:00;57.10;;;35.70;;
75171;SDS011;63750;52.418;20.742;2022-11-15T12:26:33;56.80;;;35.40;;
75171;SDS011;63750;52.418;20.742;2022-11-15T12:29:09;57.90;;;35.50;;
75171;SDS011;63750;52.418;20.742;2022-11-15T12:31:43;54.30;;;35.00;;
75171;SDS011;63750;52.418;20.742;2022-11-15T12:34:29;59.70;;;37.10;;
75171;SDS011;63750;52.418;20.742;2022-11-15T12:37:06;55.60;;;37.10;;
75171;SDS011;63750;52.418;20.742;2022-11-15T12:40:20;61.30;;;38.30;;
75171;SDS011;63750;52.418;20.742;2022-11-15T12:45:57;58.60;;;37.40;;
75171;SDS011;63750;52.418;20.742;2022-11-15T13:06:00;63.60;;;38.70;;
75171;SDS011;63750;52.418;20.742;2022-11-15T13:08:39;62.10;;;38.20;;
75171;SDS011;63750;52.418;20.742;2022-11-15T13:17:25;59.80;;;36.10;;
75171;SDS011;63750;52.418;20.742;2022-11-15T13:22:53;68.30;;;39.90;;
75171;SDS011;63750;52.418;20.742;2022-11-15T13:25:48;62.00;;;39.80;;
75171;SDS011;63750;52.418;20.742;2022-11-15T13:28:43;60.00;;;36.30;;
75171;SDS011;63750;52.418;20.742;2022-11-15T13:31:25;59.50;;;36.00;;
75171;SDS011;63750;52.418;20.742;2022-11-15T13:33:58;54.30;;;34.20;;
75171;SDS011;63750;52.418;20.742;2022-11-15T13:36:31;59.20;;;35.40;;
75171;SDS011;63750;52.418;20.742;2022-11-15T13:39:01;56.40;;;36.00;;
75171;SDS011;63750;52.418;20.742;2022-11-15T13:41:31;57.60;;;34.30;;
75171;SDS011;63750;52.418;20.742;2022-11-15T13:44:19;54.00;;;36.40;;
75171;SDS011;63750;52.418;20.742;2022-11-15T13:46:50;50.30;;;34.10;;
75171;SDS011;63750;52.418;20.742;2022-11-15T13:49:31;55.90;;;35.90;;
75171;SDS011;63750;52.418;20.742;2022-11-15T13:52:04;56.00;;;36.80;;
75171;SDS011;63750;52.418;20.742;2022-11-15T13:54:35;58.80;;;37.30;;
75171;SDS011;63750;52.418;20.742;2022-11-15T13:57:08;59.00;;;37.00;;
75171;SDS011;63750;52.418;20.742;2022-11-15T13:59:46;61.00;;;36.20;;
75171;SDS011;63750;52.418;20.742;2022-11-15T14:02:21;67.90;;;39.40;;
75171;SDS011;63750;52.418;20.742;2022-11-15T14:04:55;65.50;;;39.70;;
75171;SDS011;63750;52.418;20.742;2022-11-15T14:07:27;66.40;;;39.90;;
75171;SDS011;63750;52.418;20.742;2022-11-15T14:09:56;64.30;;;39.20;;
75171;SDS011;63750;52.418;20.742;2022-11-15T14:12:49;66.70;;;39.80;;
75171;SDS011;63750;52.418;20.742;2022-11-15T14:15:26;67.40;;;39.20;;
75171;SDS011;63750;52.418;20.742;2022-11-15T14:17:57;65.80;;;38.60;;
75171;SDS011;63750;52.418;20.742;2022-11-15T14:20:28;68.30;;;40.90;;
75171;SDS011;63750;52.418;20.742;2022-11-15T14:23:00;67.30;;;39.40;;
75171;SDS011;63750;52.418;20.742;2022-11-15T14:25:30;63.00;;;39.40;;
75171;SDS011;63750;52.418;20.742;2022-11-15T14:28:12;65.40;;;39.40;;
75171;SDS011;63750;52.418;20.742;2022-11-15T14:30:58;63.40;;;37.50;;
75171;SDS011;63750;52.418;20.742;2022-11-15T14:33:30;60.90;;;37.90;;
75171;SDS011;63750;52.418;20.742;2022-11-15T14:36:11;60.90;;;37.50;;
75171;SDS011;63750;52.418;20.742;2022-11-15T14:38:41;57.60;;;36.50;;
75171;SDS011;63750;52.418;20.742;2022-11-15T14:41:16;61.60;;;36.50;;
75171;SDS011;63750;52.418;20.742;2022-11-15T14:43:47;58.70;;;36.60;;
75171;SDS011;63750;52.418;20.742;2022-11-15T14:46:16;65.50;;;36.00;;
75171;SDS011;63750;52.418;20.742;2022-11-15T14:48:45;64.90;;;36.90;;
75171;SDS011;63750;52.418;20.742;2022-11-15T14:51:14;63.70;;;36.40;;
75171;SDS011;63750;52.418;20.742;2022-11-15T14:53:44;60.00;;;37.20;;
75171;SDS011;63750;52.418;20.742;2022-11-15T14:56:14;60.90;;;37.30;;
75171;SDS011;63750;52.418;20.742;2022-11-15T14:58:43;64.70;;;38.20;;
75171;SDS011;63750;52.418;20.742;2022-11-15T15:01:13;72.10;;;42.00;;
75171;SDS011;63750;52.418;20.742;2022-11-15T15:03:44;67.60;;;38.40;;
75171;SDS011;63750;52.418;20.742;2022-11-15T15:06:12;64.20;;;38.50;;
75171;SDS011;63750;52.418;20.742;2022-11-15T15:08:40;71.40;;;39.60;;
75171;SDS011;63750;52.418;20.742;2022-11-15T15:11:10;75.80;;;42.20;;
75171;SDS011;63750;52.418;20.742;2022-11-15T15:13:44;70.10;;;40.40;;
75171;SDS011;63750;52.418;20.742;2022-11-15T15:16:12;65.00;;;36.50;;